sensor_id;sensor_type;location;lat;lon;timestamp;P1;durP1;ratioP1;P2;durP2;ratioP2
20065;SDS011;10193;48.884;9.182;2023-03-31T00:02:11;1.88;;;1.00;;
20065;SDS011;10193;48.884;9.182;2023-03-31T00:04:38;1.55;;;1.10;;
20065;SDS011;10193;48.884;9.182;2023-03-31T00:07:10;3.85;;;1.40;;
20065;SDS011;10193;48.884;9.182;2023-03-31T00:09:38;2.35;;;0.98;;
20065;SDS011;10193;48.884;9.182;2023-03-31T00:12:06;1.80;;;1.00;;
20065;SDS011;10193;48.884;9.182;2023-03-31T00:14:34;1.65;;;1.00;;
20065;SDS011;10193;48.884;9.182;2023-03-31T00:17:01;3.88;;;1.25;;
20065;SDS011;10193;48.884;9.182;2023-03-31T00:19:28;3.03;;;1.05;;
20065;SDS011;10193;48.884;9.182;2023-03-31T00:21:57;2.53;;;1.42;;
20065;SDS011;10193;48.884;9.182;2023-03-31T00:24:26;1.70;;;1.30;;
20065;SDS011;10193;48.884;9.182;2023-03-31T00:26:56;2.17;;;1.02;;
20065;SDS011;10193;48.884;9.182;2023-03-31T00:29:23;2.03;;;0.80;;
20065;SDS011;10193;48.884;9.182;2023-03-31T00:31:51;3.28;;;1.40;;
20065;SDS011;10193;48.884;9.182;2023-03-31T00:34:19;1.67;;;1.08;;
20065;SDS011;10193;48.884;9.182;2023-03-31T00:36:45;1.98;;;1.05;;
20065;SDS011;10193;48.884;9.182;2023-03-31T00:39:12;2.20;;;1.45;;
20065;SDS011;10193;48.884;9.182;2023-03-31T00:41:41;1.10;;;1.00;;
20065;SDS011;10193;48.884;9.182;2023-03-31T00:44:10;2.70;;;1.10;;
20065;SDS011;10193;48.884;9.182;2023-03-31T00:46:43;1.77;;;1.30;;
20065;SDS011;10193;48.884;9.182;2023-03-31T00:49:16;2.95;;;0.80;;
20065;SDS011;10193;48.884;9.182;2023-03-31T00:51:48;2.83;;;1.27;;
20065;SDS011;10193;48.884;9.182;2023-03-31T00:54:17;1.60;;;1.02;;
20065;SDS011;10193;48.884;9.182;2023-03-31T00:56:47;3.20;;;1.35;;
20065;SDS011;10193;48.884;9.182;2023-03-31T00:59:17;2.70;;;1.08;;
20065;SDS011;10193;48.884;9.182;2023-03-31T01:01:44;1.63;;;1.13;;
20065;SDS011;10193;48.884;9.182;2023-03-31T01:04:14;3.40;;;1.40;;
20065;SDS011;10193;48.884;9.182;2023-03-31T01:06:49;3.33;;;1.05;;
20065;SDS011;10193;48.884;9.182;2023-03-31T01:09:21;3.25;;;1.20;;
20065;SDS011;10193;48.884;9.182;2023-03-31T01:11:49;2.85;;;1.38;;
20065;SDS011;10193;48.884;9.182;2023-03-31T01:14:15;1.98;;;1.20;;
20065;SDS011;10193;48.884;9.182;2023-03-31T01:16:42;2.72;;;1.30;;
20065;SDS011;10193;48.884;9.182;2023-03-31T01:19:11;2.63;;;1.48;;
20065;SDS011;10193;48.884;9.182;2023-03-31T01:21:52;3.38;;;1.30;;
20065;SDS011;10193;48.884;9.182;2023-03-31T01:24:49;2.38;;;1.10;;
20065;SDS011;10193;48.884;9.182;2023-03-31T01:27:56;1.75;;;1.13;;
20065;SDS011;10193;48.884;9.182;2023-03-31T01:30:37;1.52;;;1.13;;
20065;SDS011;10193;48.884;9.182;2023-03-31T01:33:39;2.78;;;1.23;;
20065;SDS011;10193;48.884;9.182;2023-03-31T01:36:29;2.22;;;1.27;;
20065;SDS011;10193;48.884;9.182;2023-03-31T01:42:24;2.58;;;1.30;;
20065;SDS011;10193;48.884;9.182;2023-03-31T01:44:59;2.05;;;1.20;;
20065;SDS011;10193;48.884;9.182;2023-03-31T01:47:34;1.73;;;1.20;;
20065;SDS011;10193;48.884;9.182;2023-03-31T01:50:05;2.28;;;1.20;;
20065;SDS011;10193;48.884;9.182;2023-03-31T01:52:36;2.83;;;1.10;;
20065;SDS011;10193;48.884;9.182;2023-03-31T01:55:10;2.38;;;1.05;;
20065;SDS011;10193;48.884;9.182;2023-03-31T01:57:42;3.03;;;1.20;;
20065;SDS011;10193;48.884;9.182;2023-03-31T02:00:13;2.03;;;1.10;;
20065;SDS011;10193;48.884;9.182;2023-03-31T02:02:43;4.07;;;1.52;;
20065;SDS011;10193;48.884;9.182;2023-03-31T02:05:13;2.35;;;1.17;;
20065;SDS011;10193;48.884;9.182;2023-03-31T02:07:45;2.25;;;1.00;;
20065;SDS011;10193;48.884;9.182;2023-03-31T02:10:15;3.03;;;1.25;;
20065;SDS011;10193;48.884;9.182;2023-03-31T02:12:44;1.60;;;0.88;;
20065;SDS011;10193;48.884;9.182;2023-03-31T02:15:12;1.63;;;1.17;;
20065;SDS011;10193;48.884;9.182;2023-03-31T02:17:42;2.33;;;1.40;;
20065;SDS011;10193;48.884;9.182;2023-03-31T02:20:11;1.42;;;0.85;;
20065;SDS011;10193;48.884;9.182;2023-03-31T02:22:41;1.10;;;0.98;;
20065;SDS011;10193;48.884;9.182;2023-03-31T02:25:11;1.27;;;0.82;;
20065;SDS011;10193;48.884;9.182;2023-03-31T02:27:43;2.55;;;0.93;;
20065;SDS011;10193;48.884;9.182;2023-03-31T02:30:13;2.47;;;0.93;;
20065;SDS011;10193;48.884;9.182;2023-03-31T02:32:40;1.35;;;0.90;;
20065;SDS011;10193;48.884;9.182;2023-03-31T02:35:09;1.73;;;0.90;;
20065;SDS011;10193;48.884;9.182;2023-03-31T02:37:37;1.10;;;1.00;;
20065;SDS011;10193;48.884;9.182;2023-03-31T02:40:06;1.80;;;1.52;;
20065;SDS011;10193;48.884;9.182;2023-03-31T02:42:36;3.38;;;1.48;;
20065;SDS011;10193;48.884;9.182;2023-03-31T02:45:05;1.90;;;1.20;;
20065;SDS011;10193;48.884;9.182;2023-03-31T02:47:53;1.67;;;1.20;;
20065;SDS011;10193;48.884;9.182;2023-03-31T02:50:20;2.03;;;1.20;;
20065;SDS011;10193;48.884;9.182;2023-03-31T02:52:55;1.73;;;1.02;;
20065;SDS011;10193;48.884;9.182;2023-03-31T02:55:33;2.33;;;1.10;;
20065;SDS011;10193;48.884;9.182;2023-03-31T02:58:22;1.70;;;1.20;;
20065;SDS011;10193;48.884;9.182;2023-03-31T03:01:10;1.83;;;1.20;;
20065;SDS011;10193;48.884;9.182;2023-03-31T03:03:51;2.03;;;1.10;;
20065;SDS011;10193;48.884;9.182;2023-03-31T03:06:31;2.95;;;1.10;;
20065;SDS011;10193;48.884;9.182;2023-03-31T03:09:06;2.97;;;1.23;;
20065;SDS011;10193;48.884;9.182;2023-03-31T03:11:43;3.97;;;1.45;;
20065;SDS011;10193;48.884;9.182;2023-03-31T03:14:20;3.22;;;1.55;;
20065;SDS011;10193;48.884;9.182;2023-03-31T03:16:56;1.33;;;1.08;;
20065;SDS011;10193;48.884;9.182;2023-03-31T03:19:24;2.05;;;1.20;;
20065;SDS011;10193;48.884;9.182;2023-03-31T03:21:51;1.98;;;1.40;;
20065;SDS011;10193;48.884;9.182;2023-03-31T03:24:18;1.83;;;1.30;;
20065;SDS011;10193;48.884;9.182;2023-03-31T03:26:46;2.03;;;1.35;;
20065;SDS011;10193;48.884;9.182;2023-03-31T03:29:13;2.58;;;1.38;;
20065;SDS011;10193;48.884;9.182;2023-03-31T03:31:40;2.13;;;1.20;;
20065;SDS011;10193;48.884;9.182;2023-03-31T03:34:08;1.92;;;1.10;;
20065;SDS011;10193;48.884;9.182;2023-03-31T03:36:35;1.70;;;1.17;;
20065;SDS011;10193;48.884;9.182;2023-03-31T03:39:02;1.83;;;1.25;;
20065;SDS011;10193;48.884;9.182;2023-03-31T03:41:29;1.67;;;1.27;;
20065;SDS011;10193;48.884;9.182;2023-03-31T03:43:57;2.03;;;1.20;;
20065;SDS011;10193;48.884;9.182;2023-03-31T03:46:24;3.20;;;1.80;;
20065;SDS011;10193;48.884;9.182;2023-03-31T03:48:50;3.30;;;1.55;;
20065;SDS011;10193;48.884;9.182;2023-03-31T03:51:18;2.63;;;1.45;;
20065;SDS011;10193;48.884;9.182;2023-03-31T03:53:45;3.85;;;1.70;;
20065;SDS011;10193;48.884;9.182;2023-03-31T03:56:12;3.50;;;1.48;;
20065;SDS011;10193;48.884;9.182;2023-03-31T03:58:38;3.03;;;1.20;;
20065;SDS011;10193;48.884;9.182;2023-03-31T04:01:05;2.22;;;1.58;;
20065;SDS011;10193;48.884;9.182;2023-03-31T04:03:32;3.65;;;1.58;;
20065;SDS011;10193;48.884;9.182;2023-03-31T04:05:58;2.85;;;1.80;;
20065;SDS011;10193;48.884;9.182;2023-03-31T04:08:26;3.40;;;1.70;;
20065;SDS011;10193;48.884;9.182;2023-03-31T04:10:53;2.38;;;1.52;;
20065;SDS011;10193;48.884;9.182;2023-03-31T04:13:20;1.48;;;1.33;;
20065;SDS011;10193;48.884;9.182;2023-03-31T04:15:46;2.72;;;1.85;;
20065;SDS011;10193;48.884;9.182;2023-03-31T04:18:13;2.88;;;1.80;;
20065;SDS011;10193;48.884;9.182;2023-03-31T04:20:47;2.20;;;1.50;;
20065;SDS011;10193;48.884;9.182;2023-03-31T04:23:19;2.38;;;1.90;;
20065;SDS011;10193;48.884;9.182;2023-03-31T04:25:49;2.35;;;1.55;;
20065;SDS011;10193;48.884;9.182;2023-03-31T04:28:16;3.10;;;1.70;;
20065;SDS011;10193;48.884;9.182;2023-03-31T04:30:44;1.92;;;1.75;;
20065;SDS011;10193;48.884;9.182;2023-03-31T04:33:10;3.72;;;1.88;;
20065;SDS011;10193;48.884;9.182;2023-03-31T04:35:39;1.88;;;1.77;;
20065;SDS011;10193;48.884;9.182;2023-03-31T04:38:13;3.67;;;1.95;;
20065;SDS011;10193;48.884;9.182;2023-03-31T04:40:43;2.58;;;1.50;;
20065;SDS011;10193;48.884;9.182;2023-03-31T04:43:11;3.15;;;1.80;;
20065;SDS011;10193;48.884;9.182;2023-03-31T04:45:38;4.03;;;1.48;;
20065;SDS011;10193;48.884;9.182;2023-03-31T04:48:05;1.95;;;1.60;;
20065;SDS011;10193;48.884;9.182;2023-03-31T04:50:32;2.75;;;1.83;;
20065;SDS011;10193;48.884;9.182;2023-03-31T04:52:59;3.22;;;1.70;;
20065;SDS011;10193;48.884;9.182;2023-03-31T04:55:26;2.33;;;1.30;;
20065;SDS011;10193;48.884;9.182;2023-03-31T04:57:52;1.73;;;1.60;;
20065;SDS011;10193;48.884;9.182;2023-03-31T05:00:21;3.03;;;1.95;;
20065;SDS011;10193;48.884;9.182;2023-03-31T05:02:48;2.33;;;1.92;;
20065;SDS011;10193;48.884;9.182;2023-03-31T05:05:15;2.22;;;1.73;;
20065;SDS011;10193;48.884;9.182;2023-03-31T05:07:42;2.63;;;1.90;;
20065;SDS011;10193;48.884;9.182;2023-03-31T05:10:10;2.40;;;1.67;;
20065;SDS011;10193;48.884;9.182;2023-03-31T05:12:37;4.00;;;2.17;;
20065;SDS011;10193;48.884;9.182;2023-03-31T05:15:04;2.40;;;1.90;;
20065;SDS011;10193;48.884;9.182;2023-03-31T05:17:34;3.55;;;1.95;;
20065;SDS011;10193;48.884;9.182;2023-03-31T05:20:02;3.30;;;2.30;;
20065;SDS011;10193;48.884;9.182;2023-03-31T05:22:32;2.78;;;2.10;;
20065;SDS011;10193;48.884;9.182;2023-03-31T05:24:59;3.67;;;2.40;;
20065;SDS011;10193;48.884;9.182;2023-03-31T05:27:26;4.95;;;2.50;;
20065;SDS011;10193;48.884;9.182;2023-03-31T05:29:53;3.30;;;2.45;;
20065;SDS011;10193;48.884;9.182;2023-03-31T05:32:20;4.97;;;2.50;;
20065;SDS011;10193;48.884;9.182;2023-03-31T05:34:48;3.15;;;2.28;;
20065;SDS011;10193;48.884;9.182;2023-03-31T05:37:16;5.05;;;2.47;;
20065;SDS011;10193;48.884;9.182;2023-03-31T05:39:43;3.40;;;2.35;;
20065;SDS011;10193;48.884;9.182;2023-03-31T05:42:10;3.15;;;2.40;;
20065;SDS011;10193;48.884;9.182;2023-03-31T05:44:36;3.13;;;2.60;;
20065;SDS011;10193;48.884;9.182;2023-03-31T05:47:03;4.75;;;2.85;;
20065;SDS011;10193;48.884;9.182;2023-03-31T05:49:30;4.82;;;2.47;;
20065;SDS011;10193;48.884;9.182;2023-03-31T05:51:58;2.90;;;2.42;;
20065;SDS011;10193;48.884;9.182;2023-03-31T05:54:25;3.55;;;2.35;;
20065;SDS011;10193;48.884;9.182;2023-03-31T05:56:52;4.35;;;2.28;;
20065;SDS011;10193;48.884;9.182;2023-03-31T05:59:19;3.45;;;2.25;;
20065;SDS011;10193;48.884;9.182;2023-03-31T06:01:46;3.35;;;2.03;;
20065;SDS011;10193;48.884;9.182;2023-03-31T06:04:12;4.30;;;2.35;;
20065;SDS011;10193;48.884;9.182;2023-03-31T06:06:39;2.10;;;1.95;;
20065;SDS011;10193;48.884;9.182;2023-03-31T06:09:08;3.53;;;2.40;;
20065;SDS011;10193;48.884;9.182;2023-03-31T06:11:36;2.67;;;2.30;;
20065;SDS011;10193;48.884;9.182;2023-03-31T06:14:03;3.55;;;2.30;;
20065;SDS011;10193;48.884;9.182;2023-03-31T06:16:30;3.22;;;2.40;;
20065;SDS011;10193;48.884;9.182;2023-03-31T06:18:56;3.53;;;2.22;;
20065;SDS011;10193;48.884;9.182;2023-03-31T06:21:23;2.33;;;2.13;;
20065;SDS011;10193;48.884;9.182;2023-03-31T06:23:49;4.38;;;2.33;;
20065;SDS011;10193;48.884;9.182;2023-03-31T06:26:20;3.83;;;2.47;;
20065;SDS011;10193;48.884;9.182;2023-03-31T06:28:47;5.00;;;2.65;;
20065;SDS011;10193;48.884;9.182;2023-03-31T06:31:15;3.70;;;2.50;;
20065;SDS011;10193;48.884;9.182;2023-03-31T06:33:43;2.70;;;2.20;;
20065;SDS011;10193;48.884;9.182;2023-03-31T06:36:12;3.08;;;2.55;;
20065;SDS011;10193;48.884;9.182;2023-03-31T06:38:40;2.65;;;2.30;;
20065;SDS011;10193;48.884;9.182;2023-03-31T06:41:07;3.63;;;2.50;;
20065;SDS011;10193;48.884;9.182;2023-03-31T06:43:37;2.95;;;2.50;;
20065;SDS011;10193;48.884;9.182;2023-03-31T06:46:04;2.85;;;2.65;;
20065;SDS011;10193;48.884;9.182;2023-03-31T06:48:31;4.22;;;2.63;;
20065;SDS011;10193;48.884;9.182;2023-03-31T06:50:59;3.70;;;2.70;;
20065;SDS011;10193;48.884;9.182;2023-03-31T06:53:26;3.83;;;2.70;;
20065;SDS011;10193;48.884;9.182;2023-03-31T06:55:53;2.58;;;2.30;;
20065;SDS011;10193;48.884;9.182;2023-03-31T06:58:20;4.32;;;2.63;;
20065;SDS011;10193;48.884;9.182;2023-03-31T07:00:48;3.35;;;2.42;;
20065;SDS011;10193;48.884;9.182;2023-03-31T07:03:15;4.80;;;2.75;;
20065;SDS011;10193;48.884;9.182;2023-03-31T07:05:46;3.38;;;2.60;;
20065;SDS011;10193;48.884;9.182;2023-03-31T07:08:14;3.63;;;3.00;;
20065;SDS011;10193;48.884;9.182;2023-03-31T07:10:41;4.88;;;3.08;;
20065;SDS011;10193;48.884;9.182;2023-03-31T07:13:11;4.95;;;2.90;;
20065;SDS011;10193;48.884;9.182;2023-03-31T07:15:37;3.03;;;2.70;;
20065;SDS011;10193;48.884;9.182;2023-03-31T07:18:06;3.97;;;2.80;;
20065;SDS011;10193;48.884;9.182;2023-03-31T07:20:33;4.75;;;3.08;;
20065;SDS011;10193;48.884;9.182;2023-03-31T07:23:02;2.67;;;2.45;;
20065;SDS011;10193;48.884;9.182;2023-03-31T07:25:30;3.00;;;2.67;;
20065;SDS011;10193;48.884;9.182;2023-03-31T07:27:57;3.08;;;2.63;;
20065;SDS011;10193;48.884;9.182;2023-03-31T07:30:24;3.25;;;2.50;;
20065;SDS011;10193;48.884;9.182;2023-03-31T07:32:51;3.92;;;2.55;;
20065;SDS011;10193;48.884;9.182;2023-03-31T07:35:20;2.63;;;2.30;;
20065;SDS011;10193;48.884;9.182;2023-03-31T07:37:47;3.15;;;2.30;;
20065;SDS011;10193;48.884;9.182;2023-03-31T07:40:16;2.88;;;1.92;;
20065;SDS011;10193;48.884;9.182;2023-03-31T07:42:44;2.67;;;1.92;;
20065;SDS011;10193;48.884;9.182;2023-03-31T07:45:13;2.72;;;1.90;;
20065;SDS011;10193;48.884;9.182;2023-03-31T07:47:41;1.88;;;1.55;;
20065;SDS011;10193;48.884;9.182;2023-03-31T07:50:08;2.25;;;1.63;;
20065;SDS011;10193;48.884;9.182;2023-03-31T07:52:39;2.05;;;1.60;;
20065;SDS011;10193;48.884;9.182;2023-03-31T07:55:06;2.05;;;1.30;;
20065;SDS011;10193;48.884;9.182;2023-03-31T07:57:34;2.05;;;1.40;;
20065;SDS011;10193;48.884;9.182;2023-03-31T08:00:01;1.65;;;1.25;;
20065;SDS011;10193;48.884;9.182;2023-03-31T08:02:32;2.25;;;1.30;;
20065;SDS011;10193;48.884;9.182;2023-03-31T08:04:59;1.70;;;1.35;;
20065;SDS011;10193;48.884;9.182;2023-03-31T08:07:25;1.00;;;0.95;;
20065;SDS011;10193;48.884;9.182;2023-03-31T08:09:56;1.40;;;1.30;;
20065;SDS011;10193;48.884;9.182;2023-03-31T08:12:23;1.00;;;0.90;;
20065;SDS011;10193;48.884;9.182;2023-03-31T08:14:50;2.08;;;1.00;;
20065;SDS011;10193;48.884;9.182;2023-03-31T08:17:16;1.13;;;0.77;;
20065;SDS011;10193;48.884;9.182;2023-03-31T08:19:43;0.90;;;0.90;;
20065;SDS011;10193;48.884;9.182;2023-03-31T08:22:10;1.25;;;0.90;;
20065;SDS011;10193;48.884;9.182;2023-03-31T08:24:36;0.90;;;0.80;;
20065;SDS011;10193;48.884;9.182;2023-03-31T08:27:04;0.68;;;0.63;;
20065;SDS011;10193;48.884;9.182;2023-03-31T08:29:31;0.82;;;0.80;;
20065;SDS011;10193;48.884;9.182;2023-03-31T08:31:58;1.05;;;0.85;;
20065;SDS011;10193;48.884;9.182;2023-03-31T08:34:24;1.25;;;1.00;;
20065;SDS011;10193;48.884;9.182;2023-03-31T08:36:52;1.48;;;1.00;;
20065;SDS011;10193;48.884;9.182;2023-03-31T08:39:19;2.95;;;1.27;;
20065;SDS011;10193;48.884;9.182;2023-03-31T08:41:48;0.93;;;0.70;;
20065;SDS011;10193;48.884;9.182;2023-03-31T08:44:23;2.28;;;1.20;;
20065;SDS011;10193;48.884;9.182;2023-03-31T08:46:54;1.17;;;1.00;;
20065;SDS011;10193;48.884;9.182;2023-03-31T08:49:23;1.67;;;0.93;;
20065;SDS011;10193;48.884;9.182;2023-03-31T08:51:54;1.08;;;0.85;;
20065;SDS011;10193;48.884;9.182;2023-03-31T08:54:27;2.88;;;1.05;;
20065;SDS011;10193;48.884;9.182;2023-03-31T08:56:58;1.00;;;0.80;;
20065;SDS011;10193;48.884;9.182;2023-03-31T08:59:28;2.00;;;0.88;;
20065;SDS011;10193;48.884;9.182;2023-03-31T09:01:59;1.38;;;1.00;;
20065;SDS011;10193;48.884;9.182;2023-03-31T09:04:42;3.13;;;1.00;;
20065;SDS011;10193;48.884;9.182;2023-03-31T09:07:17;1.13;;;0.85;;
20065;SDS011;10193;48.884;9.182;2023-03-31T09:09:52;3.15;;;1.20;;
20065;SDS011;10193;48.884;9.182;2023-03-31T09:12:28;3.13;;;1.15;;
20065;SDS011;10193;48.884;9.182;2023-03-31T09:15:01;5.95;;;1.20;;
20065;SDS011;10193;48.884;9.182;2023-03-31T09:17:32;1.33;;;0.95;;
20065;SDS011;10193;48.884;9.182;2023-03-31T09:20:04;1.65;;;1.10;;
20065;SDS011;10193;48.884;9.182;2023-03-31T09:22:39;2.25;;;1.00;;
20065;SDS011;10193;48.884;9.182;2023-03-31T09:25:10;2.75;;;1.10;;
20065;SDS011;10193;48.884;9.182;2023-03-31T09:27:41;2.08;;;1.10;;
20065;SDS011;10193;48.884;9.182;2023-03-31T09:30:11;2.63;;;1.20;;
20065;SDS011;10193;48.884;9.182;2023-03-31T09:32:42;1.02;;;0.80;;
20065;SDS011;10193;48.884;9.182;2023-03-31T09:35:13;1.63;;;1.00;;
20065;SDS011;10193;48.884;9.182;2023-03-31T09:37:43;1.55;;;0.80;;
20065;SDS011;10193;48.884;9.182;2023-03-31T09:40:13;2.67;;;1.50;;
20065;SDS011;10193;48.884;9.182;2023-03-31T09:42:42;2.17;;;1.13;;
20065;SDS011;10193;48.884;9.182;2023-03-31T09:45:14;3.78;;;1.10;;
20065;SDS011;10193;48.884;9.182;2023-03-31T09:47:42;3.25;;;1.20;;
20065;SDS011;10193;48.884;9.182;2023-03-31T09:50:12;1.77;;;1.15;;
20065;SDS011;10193;48.884;9.182;2023-03-31T09:52:42;3.15;;;1.10;;
20065;SDS011;10193;48.884;9.182;2023-03-31T09:55:17;1.92;;;1.20;;
20065;SDS011;10193;48.884;9.182;2023-03-31T09:57:46;2.30;;;1.20;;
20065;SDS011;10193;48.884;9.182;2023-03-31T10:00:16;3.20;;;1.35;;
20065;SDS011;10193;48.884;9.182;2023-03-31T10:02:46;3.22;;;1.40;;
20065;SDS011;10193;48.884;9.182;2023-03-31T10:05:20;2.00;;;1.15;;
20065;SDS011;10193;48.884;9.182;2023-03-31T10:07:53;2.42;;;1.17;;
20065;SDS011;10193;48.884;9.182;2023-03-31T10:10:47;2.53;;;1.02;;
20065;SDS011;10193;48.884;9.182;2023-03-31T10:13:16;2.05;;;1.15;;
20065;SDS011;10193;48.884;9.182;2023-03-31T10:15:46;2.25;;;1.13;;
20065;SDS011;10193;48.884;9.182;2023-03-31T10:18:18;2.28;;;1.10;;
20065;SDS011;10193;48.884;9.182;2023-03-31T10:20:47;4.25;;;1.40;;
20065;SDS011;10193;48.884;9.182;2023-03-31T10:23:16;2.13;;;1.30;;
20065;SDS011;10193;48.884;9.182;2023-03-31T10:25:47;2.83;;;1.30;;
20065;SDS011;10193;48.884;9.182;2023-03-31T10:28:16;4.10;;;1.67;;
20065;SDS011;10193;48.884;9.182;2023-03-31T10:30:47;2.20;;;1.35;;
20065;SDS011;10193;48.884;9.182;2023-03-31T10:33:16;1.95;;;1.20;;
20065;SDS011;10193;48.884;9.182;2023-03-31T10:35:46;2.80;;;1.23;;
20065;SDS011;10193;48.884;9.182;2023-03-31T10:38:15;3.72;;;1.42;;
20065;SDS011;10193;48.884;9.182;2023-03-31T10:40:48;1.33;;;1.08;;
20065;SDS011;10193;48.884;9.182;2023-03-31T10:43:17;2.28;;;1.20;;
20065;SDS011;10193;48.884;9.182;2023-03-31T10:45:47;2.88;;;1.15;;
20065;SDS011;10193;48.884;9.182;2023-03-31T10:48:16;1.58;;;0.90;;
20065;SDS011;10193;48.884;9.182;2023-03-31T10:50:48;2.88;;;1.00;;
20065;SDS011;10193;48.884;9.182;2023-03-31T10:53:15;2.53;;;1.23;;
20065;SDS011;10193;48.884;9.182;2023-03-31T10:55:45;1.95;;;1.08;;
20065;SDS011;10193;48.884;9.182;2023-03-31T10:58:27;2.42;;;1.15;;
20065;SDS011;10193;48.884;9.182;2023-03-31T11:01:09;3.17;;;1.20;;
20065;SDS011;10193;48.884;9.182;2023-03-31T11:03:47;2.03;;;1.30;;
20065;SDS011;10193;48.884;9.182;2023-03-31T11:06:26;3.53;;;1.20;;
20065;SDS011;10193;48.884;9.182;2023-03-31T11:09:04;2.30;;;1.25;;
20065;SDS011;10193;48.884;9.182;2023-03-31T11:11:50;3.53;;;1.25;;
20065;SDS011;10193;48.884;9.182;2023-03-31T11:14:26;4.20;;;1.35;;
20065;SDS011;10193;48.884;9.182;2023-03-31T11:17:04;3.55;;;1.38;;
20065;SDS011;10193;48.884;9.182;2023-03-31T11:19:38;1.65;;;0.90;;
20065;SDS011;10193;48.884;9.182;2023-03-31T11:22:18;2.05;;;0.90;;
20065;SDS011;10193;48.884;9.182;2023-03-31T11:28:00;3.35;;;1.10;;
20065;SDS011;10193;48.884;9.182;2023-03-31T11:30:41;5.05;;;1.00;;
20065;SDS011;10193;48.884;9.182;2023-03-31T11:33:20;1.42;;;0.75;;
20065;SDS011;10193;48.884;9.182;2023-03-31T11:36:02;0.52;;;0.40;;
20065;SDS011;10193;48.884;9.182;2023-03-31T11:38:43;0.90;;;0.40;;
20065;SDS011;10193;48.884;9.182;2023-03-31T11:41:22;0.30;;;0.30;;
20065;SDS011;10193;48.884;9.182;2023-03-31T11:43:58;0.25;;;0.25;;
20065;SDS011;10193;48.884;9.182;2023-03-31T11:46:30;0.50;;;0.30;;
20065;SDS011;10193;48.884;9.182;2023-03-31T11:49:05;0.73;;;0.45;;
20065;SDS011;10193;48.884;9.182;2023-03-31T11:51:40;0.45;;;0.20;;
20065;SDS011;10193;48.884;9.182;2023-03-31T11:54:09;0.20;;;0.20;;
20065;SDS011;10193;48.884;9.182;2023-03-31T11:56:43;0.55;;;0.40;;
20065;SDS011;10193;48.884;9.182;2023-03-31T11:59:10;0.93;;;0.60;;
20065;SDS011;10193;48.884;9.182;2023-03-31T12:01:41;0.30;;;0.30;;
20065;SDS011;10193;48.884;9.182;2023-03-31T12:04:17;0.73;;;0.40;;
20065;SDS011;10193;48.884;9.182;2023-03-31T12:06:54;0.40;;;0.35;;
20065;SDS011;10193;48.884;9.182;2023-03-31T12:09:26;1.55;;;0.40;;
20065;SDS011;10193;48.884;9.182;2023-03-31T12:11:58;1.25;;;0.60;;
20065;SDS011;10193;48.884;9.182;2023-03-31T12:14:32;0.30;;;0.20;;
20065;SDS011;10193;48.884;9.182;2023-03-31T12:17:03;0.20;;;0.20;;
20065;SDS011;10193;48.884;9.182;2023-03-31T12:19:38;0.90;;;0.40;;
20065;SDS011;10193;48.884;9.182;2023-03-31T12:22:12;0.35;;;0.30;;
20065;SDS011;10193;48.884;9.182;2023-03-31T12:24:42;0.50;;;0.40;;
20065;SDS011;10193;48.884;9.182;2023-03-31T12:27:12;0.68;;;0.30;;
20065;SDS011;10193;48.884;9.182;2023-03-31T12:29:43;0.77;;;0.30;;
20065;SDS011;10193;48.884;9.182;2023-03-31T12:32:13;0.65;;;0.32;;
20065;SDS011;10193;48.884;9.182;2023-03-31T12:34:44;0.77;;;0.50;;
20065;SDS011;10193;48.884;9.182;2023-03-31T12:37:22;0.43;;;0.22;;
20065;SDS011;10193;48.884;9.182;2023-03-31T12:40:01;1.13;;;0.38;;
20065;SDS011;10193;48.884;9.182;2023-03-31T12:42:51;1.15;;;0.65;;
20065;SDS011;10193;48.884;9.182;2023-03-31T12:45:25;0.77;;;0.45;;
20065;SDS011;10193;48.884;9.182;2023-03-31T12:51:09;3.65;;;0.60;;
20065;SDS011;10193;48.884;9.182;2023-03-31T12:53:47;1.23;;;0.70;;
20065;SDS011;10193;48.884;9.182;2023-03-31T12:56:26;0.82;;;0.60;;
20065;SDS011;10193;48.884;9.182;2023-03-31T12:58:52;1.23;;;0.50;;
20065;SDS011;10193;48.884;9.182;2023-03-31T13:01:20;1.90;;;0.90;;
20065;SDS011;10193;48.884;9.182;2023-03-31T13:03:48;1.45;;;0.77;;
20065;SDS011;10193;48.884;9.182;2023-03-31T13:12:05;3.15;;;1.13;;
20065;SDS011;10193;48.884;9.182;2023-03-31T13:14:35;2.20;;;0.98;;
20065;SDS011;10193;48.884;9.182;2023-03-31T13:17:11;1.48;;;0.70;;
20065;SDS011;10193;48.884;9.182;2023-03-31T13:19:40;1.25;;;0.75;;
20065;SDS011;10193;48.884;9.182;2023-03-31T13:22:26;1.35;;;0.60;;
20065;SDS011;10193;48.884;9.182;2023-03-31T13:30:58;0.73;;;0.38;;
20065;SDS011;10193;48.884;9.182;2023-03-31T13:33:30;2.70;;;0.60;;
20065;SDS011;10193;48.884;9.182;2023-03-31T13:36:07;1.70;;;0.68;;
20065;SDS011;10193;48.884;9.182;2023-03-31T13:38:51;1.85;;;0.60;;
20065;SDS011;10193;48.884;9.182;2023-03-31T13:41:33;2.80;;;0.80;;
20065;SDS011;10193;48.884;9.182;2023-03-31T13:44:23;1.70;;;0.52;;
20065;SDS011;10193;48.884;9.182;2023-03-31T13:50:26;0.85;;;0.40;;
20065;SDS011;10193;48.884;9.182;2023-03-31T13:53:03;0.95;;;0.50;;
20065;SDS011;10193;48.884;9.182;2023-03-31T13:58:43;0.25;;;0.22;;
20065;SDS011;10193;48.884;9.182;2023-03-31T14:01:49;0.30;;;0.30;;
20065;SDS011;10193;48.884;9.182;2023-03-31T14:04:50;0.55;;;0.28;;
20065;SDS011;10193;48.884;9.182;2023-03-31T14:07:31;0.30;;;0.30;;
20065;SDS011;10193;48.884;9.182;2023-03-31T14:10:02;0.93;;;0.40;;
20065;SDS011;10193;48.884;9.182;2023-03-31T14:12:33;0.17;;;0.17;;
20065;SDS011;10193;48.884;9.182;2023-03-31T14:15:01;0.20;;;0.20;;
20065;SDS011;10193;48.884;9.182;2023-03-31T14:17:29;0.52;;;0.20;;
20065;SDS011;10193;48.884;9.182;2023-03-31T14:20:05;2.10;;;0.47;;
20065;SDS011;10193;48.884;9.182;2023-03-31T14:22:52;0.63;;;0.32;;
20065;SDS011;10193;48.884;9.182;2023-03-31T14:25:32;0.50;;;0.30;;
20065;SDS011;10193;48.884;9.182;2023-03-31T14:28:11;0.65;;;0.25;;
20065;SDS011;10193;48.884;9.182;2023-03-31T14:30:49;0.88;;;0.40;;
20065;SDS011;10193;48.884;9.182;2023-03-31T14:33:31;1.23;;;1.02;;
20065;SDS011;10193;48.884;9.182;2023-03-31T14:36:06;2.47;;;0.82;;
20065;SDS011;10193;48.884;9.182;2023-03-31T14:38:37;2.53;;;0.77;;
20065;SDS011;10193;48.884;9.182;2023-03-31T14:41:04;1.02;;;0.40;;
20065;SDS011;10193;48.884;9.182;2023-03-31T14:43:33;0.63;;;0.40;;
20065;SDS011;10193;48.884;9.182;2023-03-31T14:46:04;0.93;;;0.40;;
20065;SDS011;10193;48.884;9.182;2023-03-31T14:48:33;1.05;;;0.50;;
20065;SDS011;10193;48.884;9.182;2023-03-31T14:51:13;0.75;;;0.40;;
20065;SDS011;10193;48.884;9.182;2023-03-31T14:53:41;0.50;;;0.40;;
20065;SDS011;10193;48.884;9.182;2023-03-31T14:56:08;0.80;;;0.40;;
20065;SDS011;10193;48.884;9.182;2023-03-31T14:58:40;0.50;;;0.30;;
20065;SDS011;10193;48.884;9.182;2023-03-31T15:01:11;0.52;;;0.28;;
20065;SDS011;10193;48.884;9.182;2023-03-31T15:03:42;1.45;;;0.30;;
20065;SDS011;10193;48.884;9.182;2023-03-31T15:06:10;0.38;;;0.38;;
20065;SDS011;10193;48.884;9.182;2023-03-31T15:08:38;0.80;;;0.68;;
20065;SDS011;10193;48.884;9.182;2023-03-31T15:11:06;0.68;;;0.40;;
20065;SDS011;10193;48.884;9.182;2023-03-31T15:13:39;0.93;;;0.80;;
20065;SDS011;10193;48.884;9.182;2023-03-31T15:16:19;0.82;;;0.70;;
20065;SDS011;10193;48.884;9.182;2023-03-31T15:18:53;0.45;;;0.45;;
20065;SDS011;10193;48.884;9.182;2023-03-31T15:21:22;0.60;;;0.40;;
20065;SDS011;10193;48.884;9.182;2023-03-31T15:23:50;0.38;;;0.25;;
20065;SDS011;10193;48.884;9.182;2023-03-31T15:26:18;0.60;;;0.32;;
20065;SDS011;10193;48.884;9.182;2023-03-31T15:28:49;1.05;;;0.40;;
20065;SDS011;10193;48.884;9.182;2023-03-31T15:31:19;0.52;;;0.40;;
20065;SDS011;10193;48.884;9.182;2023-03-31T15:33:46;0.77;;;0.30;;
20065;SDS011;10193;48.884;9.182;2023-03-31T15:36:13;0.70;;;0.50;;
20065;SDS011;10193;48.884;9.182;2023-03-31T15:38:40;1.23;;;0.40;;
20065;SDS011;10193;48.884;9.182;2023-03-31T15:41:10;1.08;;;0.47;;